Time;durP1;ratioP1;P1;durP2;ratioP2;P2;SDS_P1;SDS_P2;PMS_P1;PMS_P2;Temp;Humidity;BMP_temperature;BMP_pressure;BME280_temperature;BME280_humidity;BME280_pressure;Samples;Min_cycle;Max_cycle;Signal;HPM_P1;HPM_P2
2021/06/07 00:00:46;;;;;;;4.33;3.93;;;19.00;1.00;;;;;;4991508;28;20473;-80
2021/06/07 00:03:12;;;;;;;4.47;4.00;;;19.00;1.00;;;;;;4999420;28;21091;-80
2021/06/07 00:05:40;;;;;;;4.07;3.77;;;19.00;1.00;;;;;;4993815;28;20540;-82
2021/06/07 00:08:06;;;;;;;9.53;4.93;;;19.00;1.00;;;;;;4987159;28;20468;-79
2021/06/07 00:10:33;;;;;;;4.30;3.90;;;18.90;1.00;;;;;;4994509;28;20517;-80
2021/06/07 00:13:00;;;;;;;4.37;4.00;;;18.80;1.00;;;;;;4996537;28;20469;-80
2021/06/07 00:15:28;;;;;;;6.63;4.43;;;18.80;1.00;;;;;;4997766;28;20430;-80
2021/06/07 00:17:55;;;;;;;5.00;4.07;;;18.70;1.00;;;;;;4995784;28;20443;-81
2021/06/07 00:20:29;;;;;;;4.27;3.90;;;18.70;1.00;;;;;;4996141;28;20461;-82
2021/06/07 00:22:56;;;;;;;4.43;3.80;;;18.60;1.00;;;;;;4997347;28;20451;-81
2021/06/07 00:25:23;;;;;;;4.23;3.90;;;18.60;1.00;;;;;;5019593;28;20428;-81
2021/06/07 00:27:49;;;;;;;4.20;3.90;;;18.60;1.00;;;;;;4991952;28;20466;-81
2021/06/07 00:30:16;;;;;;;4.90;4.40;;;18.50;1.00;;;;;;4990468;28;20478;-81
2021/06/07 00:32:42;;;;;;;4.67;3.90;;;18.50;1.00;;;;;;4992521;28;20447;-81
2021/06/07 00:35:09;;;;;;;4.20;3.80;;;18.40;1.00;;;;;;4988458;28;20465;-81
2021/06/07 00:37:36;;;;;;;4.40;4.10;;;18.40;1.00;;;;;;4994583;28;20434;-80
2021/06/07 00:40:05;;;;;;;5.27;4.17;;;18.40;1.00;;;;;;4992236;28;21342;-81
2021/06/07 00:42:31;;;;;;;4.57;4.17;;;18.30;1.00;;;;;;4996381;28;20445;-81
2021/06/07 00:44:57;;;;;;;5.80;3.83;;;18.20;1.00;;;;;;4975695;28;20449;-81
2021/06/07 00:47:23;;;;;;;5.87;3.80;;;18.20;1.00;;;;;;4992533;28;20449;-81
2021/06/07 00:49:49;;;;;;;4.50;4.10;;;18.20;1.00;;;;;;4995456;28;20470;-80
2021/06/07 00:52:16;;;;;;;4.17;3.87;;;18.10;1.00;;;;;;4996201;28;21187;-79
2021/06/07 00:54:42;;;;;;;4.50;4.00;;;18.00;1.00;;;;;;5005808;28;20457;-81
2021/06/07 00:57:10;;;;;;;5.20;4.80;;;17.90;1.00;;;;;;5009791;28;20456;-81
2021/06/07 00:59:36;;;;;;;5.00;4.60;;;17.90;1.00;;;;;;5004078;28;20692;-80
2021/06/07 01:02:02;;;;;;;4.10;3.80;;;17.80;1.00;;;;;;5004017;28;20469;-80
2021/06/07 01:04:28;;;;;;;4.40;4.00;;;17.80;1.00;;;;;;4997646;28;20480;-80
2021/06/07 01:06:55;;;;;;;6.23;4.30;;;17.80;1.00;;;;;;5002133;28;20909;-80
2021/06/07 01:09:21;;;;;;;4.73;3.93;;;17.70;1.00;;;;;;4994886;28;20636;-81
2021/06/07 01:11:47;;;;;;;4.60;4.20;;;17.70;1.00;;;;;;4996434;28;20464;-82
2021/06/07 01:14:14;;;;;;;4.70;4.30;;;17.70;1.00;;;;;;4988931;28;20461;-81
2021/06/07 01:16:40;;;;;;;4.67;4.37;;;17.70;1.00;;;;;;4991554;28;20987;-81
2021/06/07 01:19:08;;;;;;;4.83;4.33;;;17.60;1.00;;;;;;4996498;28;20455;-80
2021/06/07 01:21:34;;;;;;;5.67;4.20;;;17.50;1.00;;;;;;4996329;28;20502;-81
2021/06/07 01:24:02;;;;;;;3.80;3.50;;;17.40;1.00;;;;;;4994768;28;20451;-80
2021/06/07 01:26:28;;;;;;;4.23;3.93;;;17.50;1.00;;;;;;5005325;28;20460;-81
2021/06/07 01:28:55;;;;;;;5.27;4.43;;;17.40;1.00;;;;;;5006123;28;20489;-81
2021/06/07 01:31:22;;;;;;;4.40;4.00;;;17.40;1.00;;;;;;5000473;28;21522;-80
2021/06/07 01:33:50;;;;;;;5.10;4.67;;;17.40;1.00;;;;;;5004265;28;20546;-79
2021/06/07 01:36:17;;;;;;;4.70;4.13;;;17.40;1.00;;;;;;4997238;28;20460;-81
2021/06/07 01:38:43;;;;;;;4.60;4.13;;;17.30;1.00;;;;;;5006437;28;20494;-81
2021/06/07 01:41:13;;;;;;;5.20;3.97;;;17.30;1.00;;;;;;5004365;28;20443;-81
2021/06/07 01:43:40;;;;;;;7.30;4.50;;;17.20;1.00;;;;;;5007213;28;20467;-79
2021/06/07 01:46:07;;;;;;;5.43;4.93;;;17.20;1.00;;;;;;5009782;28;20427;-80
2021/06/07 01:48:33;;;;;;;4.23;3.83;;;17.20;1.00;;;;;;5003895;28;20429;-79
2021/06/07 01:51:02;;;;;;;5.77;5.10;;;17.10;1.00;;;;;;4993949;28;20447;-81
2021/06/07 01:53:29;;;;;;;6.03;4.60;;;17.10;1.00;;;;;;4999706;28;20461;-81
2021/06/07 01:55:58;;;;;;;5.30;4.80;;;17.10;1.00;;;;;;4992825;28;21438;-80
2021/06/07 01:58:26;;;;;;;5.73;4.40;;;17.00;1.00;;;;;;4993338;28;21179;-78
2021/06/07 02:00:55;;;;;;;5.60;5.10;;;17.00;1.00;;;;;;4995346;28;20797;-78
2021/06/07 02:03:23;;;;;;;5.07;4.70;;;17.00;1.00;;;;;;4998035;28;20945;-80
2021/06/07 02:05:51;;;;;;;5.33;4.60;;;16.90;1.00;;;;;;4994041;28;20472;-79
2021/06/07 02:08:19;;;;;;;5.07;4.60;;;16.90;1.00;;;;;;4990971;28;20506;-80
2021/06/07 02:10:48;;;;;;;6.90;5.23;;;16.80;1.00;;;;;;4992623;28;20438;-79
2021/06/07 02:13:14;;;;;;;5.70;5.20;;;16.80;1.00;;;;;;4999673;28;21048;-79
2021/06/07 02:15:42;;;;;;;5.00;4.20;;;16.80;1.00;;;;;;5000067;28;20449;-79
2021/06/07 02:18:11;;;;;;;6.70;6.00;;;16.70;1.00;;;;;;4980892;28;20491;-82
2021/06/07 02:20:38;;;;;;;5.07;4.57;;;16.70;1.00;;;;;;5005826;28;21005;-82
2021/06/07 02:23:05;;;;;;;6.40;5.80;;;16.60;1.00;;;;;;5000030;28;20493;-78
2021/06/07 02:25:32;;;;;;;6.00;5.50;;;16.60;1.00;;;;;;5000141;28;21306;-80
2021/06/07 02:27:58;;;;;;;5.80;5.30;;;16.60;1.00;;;;;;4986450;28;20543;-81
2021/06/07 02:30:27;;;;;;;4.93;4.43;;;16.50;1.00;;;;;;5007491;28;20507;-81
2021/06/07 02:32:57;;;;;;;5.77;5.27;;;16.50;1.00;;;;;;4986450;28;20542;-79
2021/06/07 02:35:25;;;;;;;5.93;5.30;;;16.50;1.00;;;;;;5003684;28;20473;-80
2021/06/07 02:37:52;;;;;;;6.27;5.57;;;16.50;1.00;;;;;;5004096;28;20560;-80
2021/06/07 02:40:22;;;;;;;5.93;5.40;;;16.40;1.00;;;;;;5009779;28;20458;-79
2021/06/07 02:42:49;;;;;;;6.13;5.63;;;16.40;1.00;;;;;;5020779;28;20463;-82
2021/06/07 02:45:17;;;;;;;7.10;5.23;;;16.40;1.00;;;;;;5015365;28;20453;-81
2021/06/07 02:47:46;;;;;;;6.30;5.70;;;16.30;1.00;;;;;;5004716;28;20458;-80
2021/06/07 02:50:17;;;;;;;6.33;5.73;;;16.30;1.00;;;;;;5007686;28;20677;-79
2021/06/07 02:52:47;;;;;;;7.63;6.90;;;16.30;1.00;;;;;;5010567;28;20419;-81
2021/06/07 02:55:17;;;;;;;8.53;7.07;;;16.30;1.00;;;;;;5007779;28;20538;-80
2021/06/07 02:57:43;;;;;;;6.50;5.90;;;16.20;1.00;;;;;;5008870;28;20446;-81
2021/06/07 03:00:11;;;;;;;8.83;6.97;;;16.20;1.00;;;;;;5024810;28;20449;-80
2021/06/07 03:02:37;;;;;;;6.97;6.37;;;16.20;1.00;;;;;;5021835;28;20641;-80
2021/06/07 03:05:05;;;;;;;6.00;5.40;;;16.10;1.00;;;;;;5020555;28;21539;-80
2021/06/07 03:07:33;;;;;;;7.77;6.10;;;16.10;1.00;;;;;;5018366;28;20506;-80
2021/06/07 03:09:59;;;;;;;6.77;6.17;;;16.00;1.00;;;;;;4996264;28;20961;-80
2021/06/07 03:12:25;;;;;;;8.07;6.30;;;16.00;1.00;;;;;;5001263;28;20509;-81
2021/06/07 03:14:54;;;;;;;7.50;6.70;;;16.00;1.00;;;;;;5000673;28;21032;-81
2021/06/07 03:17:20;;;;;;;12.00;10.80;;;16.00;1.00;;;;;;4996014;28;20527;-81
2021/06/07 03:19:46;;;;;;;7.60;6.53;;;16.00;1.00;;;;;;4996581;28;20465;-80
2021/06/07 03:22:12;;;;;;;7.80;7.03;;;16.00;1.00;;;;;;4999122;28;21032;-81
2021/06/07 03:24:40;;;;;;;8.83;6.57;;;16.00;1.00;;;;;;4999080;28;20558;-81
2021/06/07 03:27:08;;;;;;;6.50;6.00;;;16.00;1.00;;;;;;5000187;28;20479;-80
2021/06/07 03:29:34;;;;;;;11.67;7.33;;;16.00;1.00;;;;;;4996704;28;20478;-81
2021/06/07 03:32:00;;;;;;;9.43;8.40;;;16.00;1.00;;;;;;5003010;28;20458;-82
2021/06/07 03:34:26;;;;;;;20.93;17.63;;;16.00;1.00;;;;;;5007371;28;20412;-80
2021/06/07 03:36:52;;;;;;;7.73;7.03;;;16.00;1.00;;;;;;5002110;28;20453;-80
2021/06/07 03:39:18;;;;;;;8.40;7.43;;;16.00;1.00;;;;;;5006295;28;20459;-82
2021/06/07 03:41:46;;;;;;;7.43;6.83;;;16.00;1.00;;;;;;5012084;28;20407;-80
2021/06/07 03:44:12;;;;;;;11.00;6.63;;;16.00;1.00;;;;;;5019143;28;20432;-81
2021/06/07 03:46:39;;;;;;;10.30;8.97;;;16.00;1.00;;;;;;5006438;28;20533;-80
2021/06/07 03:49:06;;;;;;;7.50;6.63;;;16.00;1.00;;;;;;5010581;28;20456;-81
2021/06/07 03:51:33;;;;;;;9.70;6.70;;;16.00;1.00;;;;;;5007437;28;20546;-81
2021/06/07 03:53:59;;;;;;;8.40;7.13;;;16.00;1.00;;;;;;5000971;28;20448;-80
2021/06/07 03:56:26;;;;;;;7.70;6.87;;;16.00;1.00;;;;;;5000132;28;20554;-80
2021/06/07 03:58:53;;;;;;;7.67;6.87;;;16.00;1.00;;;;;;4997868;28;20450;-81
2021/06/07 04:01:19;;;;;;;20.17;7.17;;;16.00;1.00;;;;;;5000344;28;21294;-80
2021/06/07 04:03:45;;;;;;;12.63;7.83;;;16.00;1.00;;;;;;4978296;28;20404;-81
2021/06/07 04:06:12;;;;;;;13.80;7.90;;;16.00;1.00;;;;;;4999348;28;20471;-81
2021/06/07 04:08:39;;;;;;;11.47;7.30;;;16.00;1.00;;;;;;4996023;28;20554;-80
2021/06/07 04:11:06;;;;;;;10.80;7.37;;;16.00;1.00;;;;;;5134222;22;20454;-80
2021/06/07 04:13:32;;;;;;;11.57;9.23;;;16.00;1.00;;;;;;5019896;28;20457;-79
2021/06/07 04:15:59;;;;;;;20.20;8.33;;;16.10;1.00;;;;;;5031206;28;20413;-78
2021/06/07 04:18:27;;;;;;;12.60;7.70;;;16.20;1.00;;;;;;5035595;28;20416;-76
2021/06/07 04:20:53;;;;;;;15.77;9.67;;;16.30;1.00;;;;;;5036565;28;20460;-77
2021/06/07 04:23:19;;;;;;;9.30;7.60;;;16.30;1.00;;;;;;5036428;28;20426;-77
2021/06/07 04:25:45;;;;;;;11.53;8.20;;;16.30;1.00;;;;;;5048721;28;20592;-78
2021/06/07 04:28:11;;;;;;;7.93;7.13;;;16.30;1.00;;;;;;5048688;28;20700;-78
2021/06/07 04:30:37;;;;;;;13.17;7.83;;;16.30;1.00;;;;;;5038405;28;20476;-78
2021/06/07 04:33:05;;;;;;;9.60;7.30;;;16.30;1.00;;;;;;5033097;28;20407;-78
2021/06/07 04:35:32;;;;;;;9.80;8.73;;;16.40;1.00;;;;;;5025104;28;20466;-78
2021/06/07 04:37:58;;;;;;;38.33;34.40;;;16.40;1.00;;;;;;5025247;28;20425;-79
2021/06/07 04:40:27;;;;;;;8.87;7.47;;;16.50;1.00;;;;;;5022474;28;20482;-78
2021/06/07 04:42:54;;;;;;;7.80;7.10;;;16.50;1.00;;;;;;5018569;28;20510;-80
2021/06/07 04:45:21;;;;;;;9.33;7.10;;;16.60;1.00;;;;;;5019376;28;21022;-79
2021/06/07 04:47:47;;;;;;;8.97;8.07;;;16.60;1.00;;;;;;5016901;28;20487;-78
2021/06/07 04:50:18;;;;;;;8.03;7.23;;;16.70;1.00;;;;;;5017042;28;20534;-77
2021/06/07 04:52:58;;;;;;;10.37;8.40;;;16.70;1.00;;;;;;5018360;28;20454;-79
2021/06/07 04:55:31;;;;;;;11.17;8.90;;;16.80;1.00;;;;;;5019733;28;20447;-78
2021/06/07 04:57:58;;;;;;;10.63;7.40;;;16.90;1.00;;;;;;5018735;28;20471;-78
2021/06/07 05:00:25;;;;;;;31.20;7.63;;;16.90;1.00;;;;;;5021429;28;20454;-79
2021/06/07 05:02:52;;;;;;;19.83;7.40;;;16.90;1.00;;;;;;5015132;28;20467;-80
2021/06/07 05:05:20;;;;;;;13.97;7.33;;;17.00;1.00;;;;;;5013550;28;20470;-78
2021/06/07 05:07:47;;;;;;;6.93;6.00;;;17.00;1.00;;;;;;5017434;28;20464;-79
2021/06/07 05:10:15;;;;;;;7.97;7.17;;;17.10;1.00;;;;;;5017086;28;20454;-78
2021/06/07 05:12:42;;;;;;;7.47;6.70;;;17.20;1.00;;;;;;5016472;28;20451;-79
2021/06/07 05:15:10;;;;;;;9.60;6.53;;;17.30;1.00;;;;;;5010071;28;20528;-78
2021/06/07 05:17:36;;;;;;;8.97;7.30;;;17.40;1.00;;;;;;4998623;28;20521;-80
2021/06/07 05:20:05;;;;;;;7.60;6.40;;;17.50;1.00;;;;;;5016007;28;20452;-78
2021/06/07 05:22:33;;;;;;;8.77;6.47;;;17.60;1.00;;;;;;5014545;28;20534;-79
2021/06/07 05:24:59;;;;;;;8.50;6.53;;;17.70;1.00;;;;;;5015106;28;20471;-78
2021/06/07 05:27:25;;;;;;;7.83;7.03;;;17.80;1.00;;;;;;5022838;28;20437;-78
2021/06/07 05:29:52;;;;;;;8.97;6.80;;;17.90;1.00;;;;;;5020469;28;20492;-80
2021/06/07 05:32:18;;;;;;;7.73;6.30;;;18.00;1.00;;;;;;5019272;28;21665;-79
2021/06/07 05:34:44;;;;;;;7.00;5.40;;;18.10;1.00;;;;;;5016502;28;21105;-78
2021/06/07 05:37:10;;;;;;;8.07;6.07;;;18.20;1.00;;;;;;5022523;28;20452;-79
2021/06/07 05:39:38;;;;;;;10.10;7.00;;;18.30;1.00;;;;;;5014554;28;20457;-79
2021/06/07 05:42:06;;;;;;;9.20;5.73;;;18.40;1.00;;;;;;5018069;28;20464;-78
2021/06/07 05:44:32;;;;;;;96.33;38.33;;;18.50;1.00;;;;;;5020405;28;20466;-76
2021/06/07 05:46:58;;;;;;;17.27;9.90;;;18.60;1.00;;;;;;5025327;28;20533;-78
2021/06/07 05:49:25;;;;;;;7.23;5.50;;;18.70;1.00;;;;;;5020711;28;20625;-78
2021/06/07 05:51:51;;;;;;;7.60;5.70;;;18.80;1.00;;;;;;5023361;28;20552;-80
2021/06/07 05:54:18;;;;;;;11.47;7.00;;;18.90;1.00;;;;;;5020439;28;20461;-79
2021/06/07 05:56:45;;;;;;;9.17;6.20;;;19.00;1.00;;;;;;5021676;28;20531;-80
2021/06/07 05:59:11;;;;;;;6.50;5.33;;;19.10;1.00;;;;;;5020170;28;20523;-78
2021/06/07 06:01:37;;;;;;;9.43;5.87;;;19.20;1.00;;;;;;5023752;28;20457;-78
2021/06/07 06:04:04;;;;;;;6.23;5.40;;;19.30;1.00;;;;;;5021714;28;20456;-78
2021/06/07 06:06:31;;;;;;;8.07;5.43;;;19.30;1.00;;;;;;5018648;28;21174;-78
2021/06/07 06:08:58;;;;;;;8.10;4.80;;;19.40;1.00;;;;;;5015692;28;20496;-78
2021/06/07 06:11:24;;;;;;;7.47;6.77;;;19.50;1.00;;;;;;5018778;28;20487;-79
2021/06/07 06:13:51;;;;;;;9.90;6.20;;;19.50;1.00;;;;;;5021032;28;20732;-79
2021/06/07 06:16:19;;;;;;;6.17;5.60;;;19.60;1.00;;;;;;5015581;28;20444;-80
2021/06/07 06:18:45;;;;;;;6.50;5.77;;;19.70;1.00;;;;;;5016615;28;20473;-79
2021/06/07 06:21:11;;;;;;;9.47;6.67;;;19.80;1.00;;;;;;5021080;28;20438;-79
2021/06/07 06:23:38;;;;;;;7.90;5.10;;;19.80;1.00;;;;;;5021630;28;20461;-79
2021/06/07 06:26:05;;;;;;;6.80;5.47;;;19.90;1.00;;;;;;5017667;28;20440;-78
2021/06/07 06:28:31;;;;;;;9.60;5.90;;;20.00;1.00;;;;;;5015442;28;20508;-78
2021/06/07 06:30:59;;;;;;;6.30;5.40;;;20.10;1.00;;;;;;5017206;28;20453;-78
2021/06/07 06:33:25;;;;;;;7.20;6.17;;;20.10;1.00;;;;;;5016761;28;20495;-79
2021/06/07 06:35:51;;;;;;;14.63;6.87;;;20.20;1.00;;;;;;5014857;28;21126;-75
2021/06/07 06:38:17;;;;;;;12.67;8.30;;;20.30;1.00;;;;;;5015645;28;20466;-76
2021/06/07 06:40:43;;;;;;;7.70;6.07;;;20.40;1.00;;;;;;5019746;28;20448;-76
2021/06/07 06:43:10;;;;;;;6.53;5.90;;;20.40;1.00;;;;;;5025353;28;20481;-75
2021/06/07 06:45:36;;;;;;;5.80;5.20;;;20.40;1.00;;;;;;5023484;28;20421;-77
2021/06/07 06:48:07;;;;;;;8.97;5.90;;;20.50;1.00;;;;;;5021284;28;20516;-76
2021/06/07 06:50:36;;;;;;;8.23;6.10;;;20.50;1.00;;;;;;5019509;28;20456;-76
2021/06/07 06:53:04;;;;;;;6.53;5.93;;;20.60;1.00;;;;;;5018901;28;21061;-77
2021/06/07 06:55:31;;;;;;;11.03;6.03;;;20.70;1.00;;;;;;5018880;28;20522;-77
2021/06/07 06:57:57;;;;;;;10.00;6.40;;;20.70;1.00;;;;;;5015720;28;20465;-77
2021/06/07 07:00:23;;;;;;;9.27;6.73;;;20.80;1.00;;;;;;5021724;28;20482;-76
2021/06/07 07:02:50;;;;;;;6.70;5.73;;;20.90;1.00;;;;;;5019966;28;20427;-76
2021/06/07 07:05:17;;;;;;;8.10;6.00;;;21.00;1.00;;;;;;5018041;28;20440;-77
2021/06/07 07:07:45;;;;;;;6.33;5.70;;;21.10;1.00;;;;;;5025180;28;21004;-81
2021/06/07 07:10:12;;;;;;;5.50;4.97;;;21.10;1.00;;;;;;5024389;28;20488;-82
2021/06/07 07:12:39;;;;;;;7.10;6.33;;;21.20;1.00;;;;;;5020834;28;20481;-81
2021/06/07 07:15:08;;;;;;;13.03;7.17;;;21.20;1.00;;;;;;5022978;28;20517;-82
2021/06/07 07:17:35;;;;;;;13.43;7.10;;;21.20;1.00;;;;;;5005513;28;20434;-79
2021/06/07 07:20:01;;;;;;;6.28;5.47;;;21.20;1.00;;;;;;5004228;28;20424;-79
2021/06/07 07:22:31;;;;;;;6.77;5.20;;;21.30;1.00;;;;;;5029715;28;20250;-81
2021/06/07 07:24:59;;;;;;;7.00;6.10;;;21.30;1.00;;;;;;5008685;28;20466;-81
2021/06/07 07:27:25;;;;;;;8.47;6.70;;;21.30;1.00;;;;;;5012413;28;20478;-82
2021/06/07 07:29:54;;;;;;;7.53;5.63;;;21.40;1.00;;;;;;5007696;28;20411;-82
2021/06/07 07:32:25;;;;;;;7.57;6.07;;;21.50;1.00;;;;;;5024737;28;20482;-81
2021/06/07 07:34:53;;;;;;;10.07;6.40;;;21.60;1.00;;;;;;5026480;28;20464;-81
2021/06/07 07:37:20;;;;;;;8.73;6.40;;;21.70;1.00;;;;;;5009439;28;20452;-81
2021/06/07 07:39:51;;;;;;;9.70;7.03;;;21.90;1.00;;;;;;5011731;28;21113;-81
2021/06/07 07:42:19;;;;;;;7.03;5.70;;;22.00;1.00;;;;;;5012990;28;20433;-80
2021/06/07 07:44:45;;;;;;;11.20;5.40;;;22.00;1.00;;;;;;5015089;28;20461;-79
2021/06/07 07:47:11;;;;;;;6.33;5.73;;;22.10;1.00;;;;;;5031060;28;20422;-81
2021/06/07 07:49:38;;;;;;;5.07;4.50;;;22.30;1.00;;;;;;5023224;28;20419;-81
2021/06/07 07:52:07;;;;;;;8.47;5.13;;;22.30;1.00;;;;;;5040863;28;20416;-80
2021/06/07 07:54:34;;;;;;;5.83;5.23;;;22.40;1.00;;;;;;5037350;28;20434;-80
2021/06/07 07:57:03;;;;;;;7.63;6.23;;;22.50;1.00;;;;;;5012585;28;20547;-81
2021/06/07 07:59:29;;;;;;;8.20;5.20;;;22.70;1.00;;;;;;5028498;28;20467;-81
2021/06/07 08:01:55;;;;;;;7.00;6.30;;;22.80;1.00;;;;;;5013645;28;20502;-81
2021/06/07 08:04:21;;;;;;;13.47;6.57;;;23.00;1.00;;;;;;5015551;28;20459;-78
2021/06/07 08:06:48;;;;;;;7.70;5.13;;;23.30;1.00;;;;;;5013427;28;20458;-77
2021/06/07 08:09:14;;;;;;;8.20;5.53;;;23.40;1.00;;;;;;5002264;28;21380;-77
2021/06/07 08:11:40;;;;;;;7.10;5.07;;;23.50;1.00;;;;;;5011356;28;20475;-76
2021/06/07 08:14:08;;;;;;;5.13;4.60;;;23.60;1.00;;;;;;5018688;28;20540;-78
2021/06/07 08:16:35;;;;;;;8.83;4.80;;;23.70;1.00;;;;;;5010838;28;20501;-79
2021/06/07 08:19:01;;;;;;;4.93;4.53;;;23.80;1.00;;;;;;4995005;28;21371;-79
2021/06/07 08:21:27;;;;;;;5.70;4.50;;;23.90;1.00;;;;;;5015157;28;20483;-78
2021/06/07 08:23:54;;;;;;;10.07;5.80;;;24.00;1.00;;;;;;5007992;28;20441;-78
2021/06/07 08:26:21;;;;;;;5.20;4.70;;;24.00;1.00;;;;;;5009239;28;21059;-78
2021/06/07 08:28:47;;;;;;;4.93;4.43;;;24.10;1.00;;;;;;5018788;28;21031;-78
2021/06/07 08:31:14;;;;;;;5.47;4.90;;;24.20;1.00;;;;;;5013207;28;20468;-77
2021/06/07 08:33:40;;;;;;;5.50;5.00;;;24.10;1.00;;;;;;5013767;28;20421;-77
2021/06/07 08:36:09;;;;;;;5.03;4.53;;;24.20;1.00;;;;;;5010993;28;20545;-78
2021/06/07 08:38:35;;;;;;;11.33;6.00;;;24.40;1.00;;;;;;5019871;28;20547;-76
2021/06/07 08:41:01;;;;;;;5.20;4.50;;;24.40;1.00;;;;;;5017279;28;20457;-76
2021/06/07 08:43:28;;;;;;;11.23;5.90;;;24.50;1.00;;;;;;5016963;28;20447;-76
2021/06/07 08:45:54;;;;;;;7.10;4.70;;;24.50;1.00;;;;;;5014589;28;20511;-76
2021/06/07 08:48:21;;;;;;;4.80;4.40;;;24.80;1.00;;;;;;5015866;28;20433;-77
2021/06/07 08:50:48;;;;;;;7.20;5.23;;;25.00;1.00;;;;;;5006592;28;20904;-77
2021/06/07 08:53:14;;;;;;;5.50;4.50;;;25.00;1.00;;;;;;5005919;28;20526;-76
2021/06/07 08:55:40;;;;;;;5.37;4.87;;;25.20;1.00;;;;;;5010102;28;20457;-77
2021/06/07 08:58:09;;;;;;;5.83;4.73;;;25.30;1.00;;;;;;4992803;28;20924;-77
2021/06/07 09:00:38;;;;;;;8.10;6.00;;;25.40;1.00;;;;;;5009577;28;20486;-77
2021/06/07 09:03:07;;;;;;;6.20;4.10;;;25.50;1.00;;;;;;5008779;28;20458;-78
2021/06/07 09:05:35;;;;;;;11.80;5.87;;;25.40;1.00;;;;;;5012866;28;20450;-76
2021/06/07 09:08:04;;;;;;;6.47;5.57;;;25.40;1.00;;;;;;5014026;28;20447;-76
2021/06/07 09:10:32;;;;;;;8.47;7.70;;;25.50;1.00;;;;;;5009196;28;20461;-76
2021/06/07 09:13:00;;;;;;;7.53;4.77;;;25.70;1.00;;;;;;5010583;28;21011;-77
2021/06/07 09:15:37;;;;;;;4.57;4.20;;;25.80;1.00;;;;;;5012030;28;24393;-77
2021/06/07 09:18:05;;;;;;;10.40;7.13;;;26.00;1.00;;;;;;5002120;28;20512;-76
2021/06/07 09:20:32;;;;;;;4.70;4.30;;;26.10;1.00;;;;;;5007739;28;20528;-76
2021/06/07 09:23:04;;;;;;;5.53;4.20;;;26.20;1.00;;;;;;5017710;28;20434;-76
2021/06/07 09:25:32;;;;;;;5.73;4.00;;;26.40;1.00;;;;;;5018609;28;20483;-76
2021/06/07 09:28:11;;;;;;;11.33;5.73;;;26.60;1.00;;;;;;5019307;28;20441;-75
2021/06/07 09:30:41;;;;;;;5.13;4.70;;;26.80;1.00;;;;;;5022313;28;20618;-77
2021/06/07 09:33:35;;;;;;;5.87;4.30;;;26.90;1.00;;;;;;5016886;28;20481;-76
2021/06/07 09:36:18;;;;;;;4.77;4.37;;;27.00;1.00;;;;;;5016202;28;20480;-77
2021/06/07 09:39:07;;;;;;;4.50;4.10;;;27.60;1.00;;;;;;5016465;28;20415;-77
2021/06/07 09:41:43;;;;;;;6.17;4.90;;;28.90;1.00;;;;;;5008820;28;20514;-77
2021/06/07 09:44:17;;;;;;;6.10;4.33;;;30.10;1.00;;;;;;5014683;28;20474;-77
2021/06/07 09:46:43;;;;;;;6.37;5.00;;;31.40;1.00;;;;;;5013970;28;20558;-76
2021/06/07 09:49:12;;;;;;;5.27;4.50;;;32.70;1.00;;;;;;5008659;28;20413;-77
2021/06/07 09:51:39;;;;;;;9.80;4.77;;;33.60;1.00;;;;;;5011674;28;20468;-76
2021/06/07 09:54:07;;;;;;;4.60;4.00;;;33.90;1.00;;;;;;5008202;28;20541;-76
2021/06/07 09:56:47;;;;;;;4.27;3.17;;;34.50;1.00;;;;;;5010987;28;21012;-76
2021/06/07 09:59:26;;;;;;;5.43;3.80;;;34.50;1.00;;;;;;5007041;28;20500;-77
2021/06/07 10:01:53;;;;;;;5.40;3.50;;;34.50;1.00;;;;;;5010659;28;21022;-75
2021/06/07 10:04:19;;;;;;;3.90;3.60;;;35.10;1.00;;;;;;5006323;28;20482;-76
2021/06/07 10:06:45;;;;;;;3.87;3.50;;;35.70;1.00;;;;;;5008734;28;20460;-76
2021/06/07 10:09:17;;;;;;;5.00;4.47;;;35.80;1.00;;;;;;5011202;28;20904;-76
2021/06/07 10:11:45;;;;;;;4.30;3.40;;;35.90;1.00;;;;;;5006985;28;20467;-78
2021/06/07 10:14:15;;;;;;;8.50;3.80;;;36.30;1.00;;;;;;5013003;28;20469;-78
2021/06/07 10:16:49;;;;;;;3.83;3.53;;;37.00;1.00;;;;;;5010620;28;20484;-77
2021/06/07 10:19:18;;;;;;;11.23;10.13;;;37.30;1.00;;;;;;5009706;28;20461;-78
2021/06/07 10:21:44;;;;;;;5.30;4.40;;;37.30;1.00;;;;;;5008596;28;20487;-76
2021/06/07 10:24:14;;;;;;;5.33;4.10;;;37.10;1.00;;;;;;5005333;28;21227;-76
2021/06/07 10:26:43;;;;;;;6.33;5.83;;;37.00;1.00;;;;;;5005801;28;20473;-76
2021/06/07 10:29:09;;;;;;;7.00;3.93;;;37.10;1.00;;;;;;5007693;28;20445;-76
2021/06/07 10:31:39;;;;;;;4.63;3.53;;;36.70;1.00;;;;;;5010817;28;20472;-76
2021/06/07 10:34:08;;;;;;;4.83;4.47;;;36.80;1.00;;;;;;5004993;28;20953;-75
2021/06/07 10:36:39;;;;;;;4.37;3.67;;;37.10;1.00;;;;;;5004906;28;20971;-76
2021/06/07 10:39:34;;;;;;;5.23;3.93;;;37.20;1.00;;;;;;5012295;28;21190;-76
2021/06/07 10:42:20;;;;;;;6.30;3.90;;;37.70;1.00;;;;;;4961250;28;20545;-75
2021/06/07 10:44:49;;;;;;;3.80;3.50;;;37.90;1.00;;;;;;5005172;28;20549;-76
2021/06/07 10:47:17;;;;;;;3.93;3.50;;;37.60;1.00;;;;;;5008775;28;20576;-75
2021/06/07 10:49:45;;;;;;;4.80;3.50;;;37.40;1.00;;;;;;5006201;28;20461;-76
2021/06/07 10:52:14;;;;;;;4.83;4.00;;;37.50;1.00;;;;;;5009850;28;20532;-75
2021/06/07 10:54:43;;;;;;;5.53;3.47;;;38.30;1.00;;;;;;4996484;28;21332;-76
2021/06/07 10:57:34;;;;;;;4.27;3.87;;;39.00;1.00;;;;;;5006380;28;20438;-75
2021/06/07 11:00:06;;;;;;;3.90;3.50;;;39.40;1.00;;;;;;5019457;28;20461;-79
2021/06/07 11:02:34;;;;;;;4.70;4.17;;;39.60;1.00;;;;;;5022052;28;20463;-80
2021/06/07 11:05:04;;;;;;;5.00;4.37;;;39.50;1.00;;;;;;5017033;28;20480;-80
2021/06/07 11:07:30;;;;;;;4.63;3.90;;;39.70;1.00;;;;;;5020049;28;20430;-81
2021/06/07 11:10:19;;;;;;;3.70;3.40;;;39.90;1.00;;;;;;5001220;28;21085;-82
2021/06/07 11:12:47;;;;;;;3.30;3.00;;;40.50;1.00;;;;;;4991600;28;21124;-81
2021/06/07 11:15:16;;;;;;;3.27;2.97;;;40.90;1.00;;;;;;5016252;28;20465;-81
2021/06/07 11:17:43;;;;;;;3.40;3.20;;;40.90;1.00;;;;;;5016065;28;20446;-81
2021/06/07 11:20:11;;;;;;;6.13;4.40;;;40.90;1.00;;;;;;5020334;28;20436;-82
2021/06/07 11:23:03;;;;;;;4.10;3.80;;;41.10;1.00;;;;;;5019700;28;20432;-81
2021/06/07 11:25:31;;;;;;;4.13;3.83;;;40.90;1.00;;;;;;5019527;28;20466;-80
2021/06/07 11:27:57;;;;;;;3.77;3.37;;;40.80;1.00;;;;;;5019264;28;20582;-80
2021/06/07 11:30:23;;;;;;;4.90;4.37;;;41.10;1.00;;;;;;5021063;28;20536;-82
2021/06/07 11:32:49;;;;;;;4.73;3.50;;;41.20;1.00;;;;;;5018007;28;21223;-81
2021/06/07 11:35:40;;;;;;;3.27;3.07;;;41.20;1.00;;;;;;5018263;28;20412;-82
2021/06/07 11:38:29;;;;;;;3.17;2.97;;;41.10;1.00;;;;;;4994828;28;20430;-80
2021/06/07 11:40:57;;;;;;;4.00;3.60;;;41.40;1.00;;;;;;5020639;28;20501;-81
2021/06/07 11:43:52;;;;;;;3.33;3.03;;;41.80;1.00;;;;;;5004567;28;21176;-80
2021/06/07 11:46:53;;;;;;;4.63;3.83;;;42.40;1.00;;;;;;5025162;28;20486;-80
2021/06/07 11:49:20;;;;;;;4.17;3.80;;;42.60;1.00;;;;;;5018394;28;20445;-79
2021/06/07 11:51:58;;;;;;;5.43;4.20;;;42.60;1.00;;;;;;5023634;28;20541;-80
2021/06/07 11:54:51;;;;;;;5.37;4.00;;;42.50;1.00;;;;;;5020062;28;20472;-80
2021/06/07 11:57:24;;;;;;;5.23;4.77;;;42.50;1.00;;;;;;5023756;28;20426;-79
2021/06/07 11:59:55;;;;;;;4.90;3.70;;;42.70;1.00;;;;;;5024583;28;20421;-80
2021/06/07 12:02:22;;;;;;;10.80;4.77;;;43.10;1.00;;;;;;5020595;28;20506;-81
2021/06/07 12:04:49;;;;;;;5.03;4.33;;;43.40;1.00;;;;;;5022415;28;20469;-80
2021/06/07 12:07:16;;;;;;;4.53;4.20;;;43.40;1.00;;;;;;5003188;28;20495;-81
2021/06/07 12:09:46;;;;;;;3.83;3.53;;;42.90;1.00;;;;;;5024284;28;20511;-83
2021/06/07 12:12:13;;;;;;;4.53;4.03;;;42.50;1.00;;;;;;5004006;28;20453;-78
2021/06/07 12:14:42;;;;;;;3.70;3.40;;;42.00;1.00;;;;;;5016954;28;20568;-77
2021/06/07 12:17:10;;;;;;;8.93;4.47;;;42.40;1.00;;;;;;5013727;28;20442;-77
2021/06/07 12:19:39;;;;;;;3.53;3.23;;;42.80;1.00;;;;;;5016223;28;20476;-78
2021/06/07 12:22:06;;;;;;;4.63;3.50;;;43.10;1.00;;;;;;4996746;28;20462;-77
2021/06/07 12:24:33;;;;;;;3.40;3.10;;;43.60;1.00;;;;;;5019289;28;20546;-78
2021/06/07 12:29:47;;;;;;;3.17;2.80;;;44.60;1.00;;;;;;5015262;28;20410;-77
2021/06/07 12:32:21;;;;;;;3.83;3.50;;;44.60;1.00;;;;;;4992228;28;21124;-76
2021/06/07 12:35:10;;;;;;;5.67;5.00;;;44.40;1.00;;;;;;5012923;28;20453;-77
2021/06/07 12:37:40;;;;;;;3.70;3.40;;;44.40;1.00;;;;;;5010536;28;24609;-78
2021/06/07 12:40:08;;;;;;;3.57;3.27;;;44.60;1.00;;;;;;5014985;28;20419;-77
2021/06/07 12:42:36;;;;;;;3.13;2.90;;;44.70;1.00;;;;;;5010857;28;20470;-77
2021/06/07 12:45:06;;;;;;;4.60;2.80;;;44.30;1.00;;;;;;5011472;28;20458;-75
2021/06/07 12:47:32;;;;;;;3.37;3.10;;;44.20;1.00;;;;;;5019034;28;20414;-76
2021/06/07 12:50:08;;;;;;;4.13;3.73;;;44.20;1.00;;;;;;5018633;28;20968;-77
2021/06/07 12:52:34;;;;;;;5.87;4.33;;;44.20;1.00;;;;;;5014789;28;20467;-76
2021/06/07 12:55:01;;;;;;;4.33;4.00;;;44.40;1.00;;;;;;5013281;28;20450;-77
2021/06/07 12:57:29;;;;;;;4.70;4.30;;;44.50;1.00;;;;;;5010824;28;21274;-77
2021/06/07 12:59:55;;;;;;;3.97;3.67;;;44.70;1.00;;;;;;5015570;28;20465;-77
2021/06/07 13:02:33;;;;;;;3.80;2.90;;;44.70;1.00;;;;;;4999690;28;20469;-76
2021/06/07 13:04:59;;;;;;;4.80;3.73;;;44.90;1.00;;;;;;5015817;28;20534;-76